Time;durP1;ratioP1;P1;durP2;ratioP2;P2;SDS_P1;SDS_P2;PMS_P1;PMS_P2;Temp;Humidity;BMP_temperature;BMP_pressure;BME280_temperature;BME280_humidity;BME280_pressure;Samples;Min_cycle;Max_cycle;Signal;HPM_P1;HPM_P2
2022/11/25 00:05:56;;;;;;;19.70;9.20;;;5.80;99.80;;;;;;21081676;28;20199;-75
2022/11/25 00:16:07;;;;;;;16.23;8.57;;;5.60;99.70;;;;;;21080494;28;20228;-75
2022/11/25 00:26:11;;;;;;;16.83;8.63;;;5.60;99.80;;;;;;21080646;28;20216;-73
2022/11/25 00:36:23;;;;;;;13.77;7.67;;;5.60;99.70;;;;;;21079563;28;20293;-75
2022/11/25 00:46:25;;;;;;;21.20;7.80;;;5.60;99.70;;;;;;21079122;28;20254;-74
2022/11/25 00:56:26;;;;;;;16.20;8.13;;;5.50;99.70;;;;;;21079175;28;20223;-74
2022/11/25 01:06:28;;;;;;;20.47;8.50;;;5.50;99.70;;;;;;21078438;28;20219;-72
2022/11/25 01:16:31;;;;;;;14.50;7.83;;;5.50;99.70;;;;;;21078280;28;20571;-72
2022/11/25 01:26:34;;;;;;;16.77;8.27;;;5.40;99.60;;;;;;21077622;28;20213;-74
2022/11/25 01:36:35;;;;;;;15.40;7.43;;;5.40;99.60;;;;;;21091253;28;20212;-73
2022/11/25 01:46:56;;;;;;;13.97;7.13;;;5.40;99.60;;;;;;21092557;28;20233;-73
2022/11/25 01:57:03;;;;;;;14.83;7.37;;;5.40;99.90;;;;;;21092350;28;20211;-73
2022/11/25 02:07:11;;;;;;;17.63;6.63;;;5.40;99.60;;;;;;21091056;28;20683;-72
2022/11/25 02:17:13;;;;;;;14.90;7.50;;;5.40;99.50;;;;;;21090675;28;20210;-72
2022/11/25 02:27:16;;;;;;;13.53;6.73;;;5.40;99.60;;;;;;21089744;28;20260;-72
2022/11/25 02:37:20;;;;;;;19.30;7.83;;;5.30;99.50;;;;;;21088777;28;20210;-71
2022/11/25 02:56:16;;;;;;;42.03;9.00;;;5.40;99.60;;;;;;21410718;27;20486;-75
2022/11/25 03:06:18;;;;;;;28.33;9.07;;;;;;;;;;21322052;27;20205;-75
2022/11/25 03:16:20;;;;;;;36.67;10.27;;;5.20;99.70;;;;;;21321264;27;20567;-71
2022/11/25 03:26:22;;;;;;;41.47;9.53;;;5.20;99.80;;;;;;21320704;27;20686;-71
2022/11/25 03:36:23;;;;;;;34.63;9.33;;;5.20;99.90;;;;;;21319588;27;20655;-70
2022/11/25 03:46:25;;;;;;;44.73;9.03;;;5.10;99.90;;;;;;21318598;27;20205;-71
2022/11/25 03:56:27;;;;;;;34.93;9.43;;;5.10;99.90;;;;;;21318267;27;20211;-71
2022/11/25 04:06:28;;;;;;;54.53;10.03;;;5.10;99.90;;;;;;21266569;27;20205;-71
2022/11/25 04:16:31;;;;;;;49.27;9.30;;;5.10;99.90;;;;;;21259452;27;20210;-71
2022/11/25 04:26:33;;;;;;;70.07;9.93;;;5.10;99.90;;;;;;21258880;27;20209;-75
2022/11/25 04:36:34;;;;;;;36.13;9.37;;;5.10;99.90;;;;;;21239895;27;20209;-74
2022/11/25 04:46:40;;;;;;;47.03;9.00;;;5.10;99.90;;;;;;21256842;27;20230;-74
2022/11/25 04:56:42;;;;;;;52.77;9.20;;;5.10;99.90;;;;;;21256581;27;20224;-76
2022/11/25 05:06:44;;;;;;;41.47;8.97;;;4.90;99.90;;;;;;21255227;27;20217;-76
2022/11/25 05:16:45;;;;;;;40.40;8.70;;;5.00;99.90;;;;;;21253125;27;20206;-76
2022/11/25 05:26:47;;;;;;;31.47;8.97;;;4.90;99.90;;;;;;21252672;27;20607;-74
2022/11/25 05:36:50;;;;;;;19.77;8.77;;;4.90;99.90;;;;;;21252268;27;20209;-74
2022/11/25 05:46:52;;;;;;;34.80;9.00;;;4.90;99.90;;;;;;21250862;27;20241;-75
2022/11/25 05:56:54;;;;;;;80.97;10.13;;;4.80;99.90;;;;;;21251272;27;20204;-72
2022/11/25 06:06:56;;;;;;;44.47;9.70;;;;;;;;;;21249802;27;20230;-72
2022/11/25 06:16:57;;;;;;;23.43;10.10;;;4.80;99.90;;;;;;21245704;27;20214;-73
2022/11/25 06:26:59;;;;;;;22.10;10.40;;;4.90;99.90;;;;;;21232455;27;20225;-74
2022/11/25 06:37:01;;;;;;;28.47;11.80;;;;;;;;;;21247812;27;20217;-73
2022/11/25 06:47:03;;;;;;;39.27;12.73;;;4.90;99.90;;;;;;21246879;27;20240;-76
2022/11/25 06:57:05;;;;;;;26.97;11.20;;;4.70;99.90;;;;;;21238997;27;20236;-71
2022/11/25 07:07:07;;;;;;;37.10;11.80;;;4.60;99.90;;;;;;21161473;28;20229;-72
2022/11/25 07:17:09;;;;;;;33.03;12.90;;;4.50;99.90;;;;;;21160533;28;20224;-72
2022/11/25 07:27:12;;;;;;;53.90;16.53;;;4.70;99.90;;;;;;21160575;28;20313;-71
2022/11/25 07:37:16;;;;;;;35.90;13.47;;;;;;;;;;21167173;28;20209;-72
2022/11/25 07:47:18;;;;;;;27.33;11.33;;;4.80;99.90;;;;;;21175491;28;20243;-72
2022/11/25 07:57:19;;;;;;;30.73;13.50;;;4.90;99.90;;;;;;21174503;28;20210;-72
2022/11/25 08:07:21;;;;;;;36.47;13.87;;;5.00;99.90;;;;;;21174505;28;20705;-71
2022/11/25 08:17:23;;;;;;;30.20;13.23;;;5.10;99.90;;;;;;21173552;28;20203;-72
2022/11/25 08:27:25;;;;;;;29.23;13.67;;;5.20;99.90;;;;;;21172516;28;20594;-71
2022/11/25 08:37:29;;;;;;;29.73;12.80;;;5.30;99.90;;;;;;21172604;28;20237;-72
2022/11/25 08:47:31;;;;;;;28.87;13.33;;;5.40;99.90;;;;;;21171203;28;20239;-71
2022/11/25 08:57:33;;;;;;;42.60;20.17;;;5.40;99.90;;;;;;21170093;28;20689;-71
2022/11/25 09:07:35;;;;;;;26.10;13.93;;;5.40;99.90;;;;;;21170029;28;20230;-71
2022/11/25 09:17:37;;;;;;;32.37;13.83;;;5.80;99.90;;;;;;21168548;28;20203;-72
2022/11/25 09:27:38;;;;;;;36.37;14.30;;;6.20;99.90;;;;;;21168469;28;20280;-70
2022/11/25 09:37:40;;;;;;;42.37;16.93;;;6.40;99.90;;;;;;21167391;28;20203;-72
2022/11/25 09:48:00;;;;;;;48.27;23.07;;;6.50;99.90;;;;;;21169382;28;20594;-80
2022/11/25 09:58:15;;;;;;;84.47;33.17;;;6.50;99.80;;;;;;21166211;28;20198;-73
2022/11/25 10:08:23;;;;;;;49.93;25.30;;;6.60;99.90;;;;;;21165156;28;20591;-73
2022/11/25 10:18:36;;;;;;;71.93;31.47;;;6.60;99.90;;;;;;21164372;28;20211;-71
2022/11/25 10:28:42;;;;;;;79.43;35.83;;;6.60;99.90;;;;;;21163341;28;20236;-72
2022/11/25 10:38:49;;;;;;;62.67;29.77;;;6.80;99.90;;;;;;21163177;28;20211;-73
2022/11/25 10:49:02;;;;;;;59.50;28.17;;;6.90;99.90;;;;;;21162403;28;20293;-72
2022/11/25 10:59:13;;;;;;;75.00;30.10;;;7.00;99.90;;;;;;21162183;28;20232;-72
2022/11/25 11:09:36;;;;;;;43.40;21.13;;;7.00;99.90;;;;;;21163657;28;20231;-73
2022/11/25 11:19:38;;;;;;;32.70;16.67;;;7.00;99.90;;;;;;21178269;28;20214;-74
2022/11/25 11:29:40;;;;;;;30.60;14.90;;;7.00;99.90;;;;;;21177585;28;20237;-73
2022/11/25 11:40:26;;;;;;;30.20;15.47;;;7.20;99.90;;;;;;21177542;28;20209;-71
2022/11/25 11:50:27;;;;;;;36.00;14.47;;;7.30;99.90;;;;;;21018650;28;20247;-73
2022/11/25 12:00:35;;;;;;;25.30;13.70;;;7.20;99.90;;;;;;21174667;28;20212;-73
2022/11/25 12:10:44;;;;;;;22.67;12.03;;;7.20;99.90;;;;;;21173570;28;20241;-73
2022/11/25 12:21:09;;;;;;;30.60;15.37;;;7.30;99.90;;;;;;21172069;28;20216;-73
2022/11/25 12:31:29;;;;;;;18.47;11.57;;;7.40;99.90;;;;;;21171198;28;20233;-73
2022/11/25 12:41:50;;;;;;;17.57;10.73;;;7.50;99.90;;;;;;21183574;27;20203;-73
2022/11/25 12:52:20;;;;;;;24.07;11.57;;;7.60;99.90;;;;;;21255167;27;20245;-73
2022/11/25 13:02:51;;;;;;;23.17;11.97;;;7.70;99.90;;;;;;21254358;27;20619;-73
2022/11/25 13:13:08;;;;;;;19.03;11.70;;;7.70;99.90;;;;;;21239857;27;20239;-71
2022/11/25 13:23:18;;;;;;;17.43;10.63;;;7.60;99.90;;;;;;21252710;27;20226;-73
2022/11/25 13:33:22;;;;;;;17.47;10.60;;;7.70;99.90;;;;;;21251151;27;20240;-73
2022/11/25 13:43:24;;;;;;;20.60;11.73;;;7.70;99.90;;;;;;21251233;27;20220;-73
2022/11/25 13:53:33;;;;;;;33.20;15.10;;;7.70;99.90;;;;;;21198749;27;20462;-72
2022/11/25 14:03:47;;;;;;;22.60;11.40;;;8.00;99.90;;;;;;21163394;27;20202;-72
2022/11/25 14:14:28;;;;;;;19.47;11.77;;;7.90;99.90;;;;;;21164046;28;20234;-74
2022/11/25 14:24:45;;;;;;;20.27;12.03;;;7.90;99.90;;;;;;21164142;28;20201;-72
2022/11/25 14:34:53;;;;;;;23.03;11.83;;;7.80;99.90;;;;;;21163108;28;20760;-73
2022/11/25 14:44:57;;;;;;;19.03;12.23;;;7.90;99.90;;;;;;21162789;28;20697;-73
2022/11/25 14:55:00;;;;;;;25.37;14.33;;;7.90;99.90;;;;;;21162580;28;20241;-71
2022/11/25 15:05:18;;;;;;;17.57;12.50;;;7.90;99.90;;;;;;21161630;28;20208;-73
2022/11/25 15:15:19;;;;;;;25.80;14.20;;;7.90;99.90;;;;;;21161598;28;20229;-75
2022/11/25 15:25:21;;;;;;;22.33;13.00;;;7.90;99.90;;;;;;21161952;28;20211;-72
2022/11/25 15:35:25;;;;;;;28.07;13.57;;;7.80;99.90;;;;;;21161202;28;20264;-72
2022/11/25 15:45:35;;;;;;;22.00;14.30;;;7.80;99.90;;;;;;21160532;28;20202;-75
2022/11/25 15:55:38;;;;;;;23.27;14.67;;;7.80;99.90;;;;;;21162792;28;20248;-79
2022/11/25 16:05:51;;;;;;;25.27;16.37;;;7.70;99.90;;;;;;21174577;27;20216;-72
2022/11/25 16:16:12;;;;;;;24.63;14.07;;;7.80;99.90;;;;;;21173691;28;20234;-71
2022/11/25 16:26:21;;;;;;;23.13;14.90;;;7.70;99.90;;;;;;21171132;27;20216;-71
2022/11/25 16:36:23;;;;;;;22.57;14.13;;;7.80;99.90;;;;;;21184327;27;20236;-72
2022/11/25 16:46:24;;;;;;;26.80;16.80;;;7.80;99.90;;;;;;21171570;28;20213;-72
2022/11/25 16:56:27;;;;;;;32.00;17.83;;;7.80;99.90;;;;;;21170613;28;20272;-71
2022/11/25 17:06:30;;;;;;;25.10;15.60;;;7.70;99.90;;;;;;21169743;28;20206;-76
2022/11/25 17:16:31;;;;;;;43.30;23.07;;;7.60;99.90;;;;;;21169339;28;20233;-72
2022/11/25 17:26:38;;;;;;;29.10;16.20;;;7.50;99.90;;;;;;21169016;28;20645;-73
2022/11/25 17:36:41;;;;;;;27.90;16.67;;;7.40;99.90;;;;;;21176749;27;20248;-72
2022/11/25 17:46:43;;;;;;;26.00;15.83;;;7.30;99.90;;;;;;21250406;27;20228;-68
2022/11/25 17:56:45;;;;;;;34.73;18.00;;;7.30;99.90;;;;;;21249740;27;20228;-68
2022/11/25 18:06:53;;;;;;;34.60;21.20;;;7.30;99.90;;;;;;21250591;27;20239;-73
2022/11/25 18:16:56;;;;;;;26.97;17.20;;;7.20;99.90;;;;;;21249415;27;20232;-72
2022/11/25 18:26:58;;;;;;;41.83;22.67;;;7.10;99.90;;;;;;21248998;27;20215;-73
2022/11/25 18:37:01;;;;;;;34.30;20.90;;;7.10;99.90;;;;;;21248360;27;20234;-69
2022/11/25 18:47:04;;;;;;;38.93;24.50;;;7.10;99.90;;;;;;21245263;27;20235;-69
2022/11/25 18:57:08;;;;;;;31.87;19.80;;;7.00;99.90;;;;;;21246352;27;20287;-69
2022/11/25 19:07:10;;;;;;;30.77;18.03;;;7.00;99.90;;;;;;21247796;28;20201;-70
2022/11/25 19:17:17;;;;;;;36.80;16.93;;;7.00;99.90;;;;;;21239716;27;20295;-76
2022/11/25 19:27:22;;;;;;;24.43;16.40;;;7.00;99.90;;;;;;21242017;28;20629;-73
2022/11/25 19:37:24;;;;;;;30.47;19.10;;;7.00;99.90;;;;;;21260429;27;20246;-75
2022/11/25 19:47:26;;;;;;;35.23;18.53;;;7.10;99.90;;;;;;21261969;27;20243;-72
2022/11/25 19:57:27;;;;;;;30.83;18.30;;;7.00;99.90;;;;;;21261325;27;20453;-72
2022/11/25 20:07:30;;;;;;;30.57;18.90;;;7.00;99.90;;;;;;21262676;27;20243;-74
2022/11/25 20:17:33;;;;;;;26.43;16.60;;;6.90;99.90;;;;;;21261698;27;20240;-78
2022/11/25 20:27:35;;;;;;;32.67;17.70;;;6.90;99.90;;;;;;21259716;27;20248;-78
2022/11/25 20:37:52;;;;;;;28.30;17.60;;;6.80;99.90;;;;;;21259424;27;20236;-79
2022/11/25 20:47:54;;;;;;;31.50;18.43;;;6.90;99.90;;;;;;21258483;27;20595;-72
2022/11/25 20:57:55;;;;;;;32.67;19.80;;;7.00;99.90;;;;;;21256975;27;20656;-76
2022/11/25 21:07:57;;;;;;;31.20;20.13;;;7.00;99.90;;;;;;21255800;27;20675;-77
2022/11/25 21:17:59;;;;;;;31.23;19.27;;;7.10;99.90;;;;;;21254235;27;20679;-77
2022/11/25 21:28:01;;;;;;;31.03;19.67;;;7.10;99.90;;;;;;21254061;27;20260;-73
2022/11/25 21:38:05;;;;;;;34.03;20.37;;;7.10;99.90;;;;;;21253611;27;20212;-77
2022/11/25 21:48:26;;;;;;;38.10;19.53;;;7.20;99.90;;;;;;21231814;27;20237;-76
2022/11/25 21:58:29;;;;;;;35.57;20.53;;;7.30;99.90;;;;;;21248655;27;20204;-73
2022/11/25 22:08:31;;;;;;;29.40;18.60;;;7.30;99.90;;;;;;21248804;27;20231;-73
2022/11/25 22:18:34;;;;;;;33.43;19.67;;;7.30;99.90;;;;;;21247946;27;20568;-73
2022/11/25 22:28:38;;;;;;;30.10;18.17;;;;;;;;;;21247094;27;20228;-76
2022/11/25 22:38:40;;;;;;;28.97;18.03;;;7.30;99.90;;;;;;21247005;27;20576;-71
2022/11/25 22:48:41;;;;;;;26.13;17.27;;;7.30;99.90;;;;;;21245933;27;20247;-76
2022/11/25 22:58:44;;;;;;;41.67;22.27;;;7.40;99.90;;;;;;21245675;27;20210;-75
2022/11/25 23:08:45;;;;;;;40.43;20.50;;;7.30;99.90;;;;;;21255780;27;20228;-74
2022/11/25 23:18:47;;;;;;;36.80;21.47;;;7.20;99.90;;;;;;21262580;27;20204;-75
2022/11/25 23:28:48;;;;;;;34.27;20.50;;;7.00;99.90;;;;;;21261604;27;20229;-74
2022/11/25 23:38:56;;;;;;;34.80;21.10;;;6.90;99.90;;;;;;21261201;27;20711;-74
2022/11/25 23:49:01;;;;;;;33.00;19.60;;;6.80;99.90;;;;;;21260128;27;20229;-76
